Time;durP1;ratioP1;P1;durP2;ratioP2;P2;SDS_P1;SDS_P2;PMS_P1;PMS_P2;Temp;Humidity;BMP_temperature;BMP_pressure;BME280_temperature;BME280_humidity;BME280_pressure;Samples;Min_cycle;Max_cycle;Signal;HPM_P1;HPM_P2
2022/04/04 00:01:08;;;;;;;29.20;13.62;;;;;;;-0.54;76.99;99134.80;4440694;79;21057;-87
2022/04/04 00:07:09;;;;;;;29.67;13.98;;;;;;;-0.58;77.09;99138.39;4402544;80;21006;-87
2022/04/04 00:13:11;;;;;;;29.05;14.00;;;;;;;-0.58;77.02;99130.33;4436527;79;21076;-87
2022/04/04 00:19:14;;;;;;;25.95;14.33;;;;;;;-0.60;76.85;99126.59;4438632;80;21603;-87
2022/04/04 00:25:16;;;;;;;29.30;14.10;;;;;;;-0.56;77.12;99133.48;4381147;80;20988;-86
2022/04/04 00:31:22;;;;;;;28.83;14.03;;;;;;;-0.60;77.03;99130.63;4382834;80;21059;-86
2022/04/04 00:37:28;;;;;;;24.45;11.73;;;;;;;-0.58;76.64;99133.79;4390949;80;21029;-87
2022/04/04 00:43:29;;;;;;;31.75;15.28;;;;;;;-0.59;76.78;99128.71;4392352;79;21015;-87
2022/04/04 00:49:37;;;;;;;25.25;12.45;;;;;;;-0.64;76.73;99118.08;4373070;80;21075;-86
2022/04/04 00:55:44;;;;;;;25.77;11.85;;;;;;;-0.63;76.83;99115.63;4373709;80;21078;-87
2022/04/04 01:02:05;;;;;;;23.02;12.07;;;;;;;-0.65;76.81;99117.27;4400050;80;21041;-87
2022/04/04 01:08:07;;;;;;;23.07;12.00;;;;;;;-0.66;76.26;99111.63;4389843;80;21334;-86
2022/04/04 01:14:28;;;;;;;23.90;11.03;;;;;;;-0.66;76.45;99101.45;4393575;80;21027;-87
2022/04/04 01:20:43;;;;;;;21.33;10.23;;;;;;;-0.66;76.44;99106.82;4393384;80;21030;-87
2022/04/04 01:27:00;;;;;;;19.60;10.90;;;;;;;-0.62;76.40;99106.45;4384977;80;21047;-87
2022/04/04 01:33:03;;;;;;;26.80;12.45;;;;;;;-0.64;76.26;99106.76;4392073;80;21126;-87
2022/04/04 01:39:04;;;;;;;22.23;10.43;;;;;;;-0.67;76.20;99107.89;4362799;80;21048;-86
2022/04/04 01:51:46;;;;;;;;;;;;;;;-0.69;76.44;99085.34;4400363;79;20983;-87
2022/04/04 01:57:48;;;;;;;20.30;10.23;;;;;;;-0.75;76.45;99084.42;4376584;80;20238;-86
2022/04/04 02:03:52;;;;;;;19.63;10.50;;;;;;;-0.79;76.19;99074.81;4398068;80;21929;-86
2022/04/04 02:09:57;;;;;;;20.70;10.63;;;;;;;-0.77;76.05;99078.00;4412096;79;21000;-87
2022/04/04 02:16:05;;;;;;;19.10;9.70;;;;;;;-0.81;76.11;99070.81;4390390;80;21096;-86
2022/04/04 02:22:07;;;;;;;21.05;9.98;;;;;;;-0.81;75.46;99065.44;4394516;80;21035;-87
2022/04/04 02:28:10;;;;;;;21.42;9.88;;;;;;;-0.84;75.89;99057.44;4401646;80;21035;-86
2022/04/04 02:34:20;;;;;;;17.40;9.43;;;;;;;-0.88;75.43;99049.73;4395659;79;20985;-86
2022/04/04 02:40:25;;;;;;;20.52;10.10;;;;;;;-0.89;75.63;99045.44;4394483;80;21612;-86
2022/04/04 02:46:26;;;;;;;14.80;8.13;;;;;;;-0.89;75.34;99044.09;4393888;80;21030;-86
2022/04/04 02:52:27;;;;;;;19.30;9.37;;;;;;;-0.91;75.80;99052.98;4393135;80;21584;-87
2022/04/04 02:58:28;;;;;;;15.40;7.90;;;;;;;-0.92;76.00;99055.44;4371646;79;21045;-86
2022/04/04 03:04:36;;;;;;;16.07;7.93;;;;;;;-0.91;75.99;99057.59;4402955;79;21346;-87
2022/04/04 03:10:38;;;;;;;14.73;7.70;;;;;;;-0.90;76.52;99057.29;4389278;80;21041;-87
2022/04/04 03:16:39;;;;;;;19.60;7.97;;;;;;;-0.88;75.93;99056.45;4386865;79;21059;-87
2022/04/04 03:23:00;;;;;;;13.80;8.27;;;;;;;-0.98;76.10;99049.92;4410944;80;21003;-87
2022/04/04 03:29:02;;;;;;;17.77;7.37;;;;;;;-1.02;76.12;99044.91;4409991;80;21063;-86
2022/04/04 03:35:11;;;;;;;13.70;7.33;;;;;;;-1.07;75.76;99050.37;4389704;80;21461;-87
2022/04/04 03:41:12;;;;;;;18.23;8.23;;;;;;;-1.07;75.52;99052.25;4362883;81;45266;-87
2022/04/04 03:47:13;;;;;;;14.10;7.17;;;;;;;-1.10;75.06;99052.31;4177343;84;21010;-87
2022/04/04 03:53:15;;;;;;;12.77;6.47;;;;;;;-1.11;74.92;99051.27;4177468;84;22141;-88
2022/04/04 03:59:16;;;;;;;14.83;7.60;;;;;;;-1.15;74.77;99043.00;4178410;84;20991;-87
2022/04/04 04:05:18;;;;;;;17.63;7.50;;;;;;;-1.21;75.10;99038.02;4176971;84;21114;-86
2022/04/04 04:11:21;;;;;;;14.90;7.27;;;;;;;-1.31;75.51;99036.30;4184734;84;20991;-87
2022/04/04 04:17:33;;;;;;;14.93;6.93;;;;;;;-1.34;75.45;99032.06;4179311;83;21555;-87
2022/04/04 04:23:40;;;;;;;14.17;7.40;;;;;;;-1.43;75.64;99042.71;4173069;84;21348;-87
2022/04/04 04:29:56;;;;;;;11.87;7.07;;;;;;;-1.48;75.53;99038.77;4175037;84;21582;-85
2022/04/04 04:35:57;;;;;;;13.43;6.93;;;;;;;-1.51;75.93;99031.30;4174615;83;21627;-86
2022/04/04 04:41:58;;;;;;;13.73;6.03;;;;;;;-1.56;76.08;99036.75;4175042;83;21568;-86
2022/04/04 04:48:00;;;;;;;13.93;6.47;;;;;;;-1.57;75.79;99041.31;4092289;85;21574;-85
2022/04/04 04:54:02;;;;;;;16.27;7.40;;;;;;;-1.60;75.74;99043.25;4084183;86;21145;-86
2022/04/04 05:00:11;;;;;;;13.60;6.53;;;;;;;-1.58;75.87;99050.23;4079186;85;21550;-85
2022/04/04 05:06:12;;;;;;;14.03;6.93;;;;;;;-1.56;75.68;99044.81;4091219;85;21079;-85
2022/04/04 05:12:13;;;;;;;15.00;7.10;;;;;;;-1.49;75.17;99045.23;4084361;85;21667;-85
2022/04/04 05:18:15;;;;;;;12.87;7.53;;;;;;;-1.37;75.61;99054.95;4088360;85;21387;-86
2022/04/04 05:24:43;;;;;;;12.73;6.67;;;;;;;-1.26;75.12;99050.99;3972476;82;21185;-85
2022/04/04 05:30:45;;;;;;;14.03;6.90;;;;;;;-1.13;75.33;99046.19;4088858;85;21086;-85
2022/04/04 05:43:33;;;;;;;20.43;8.00;;;;;;;-0.82;74.32;99047.19;4092194;85;21040;-84
2022/04/04 05:49:34;;;;;;;14.13;6.33;;;;;;;-0.57;73.69;99043.98;4093664;85;21082;-85
2022/04/04 05:55:36;;;;;;;13.17;7.53;;;;;;;-0.33;72.62;99043.17;4106102;85;21026;-86
2022/04/04 06:01:38;;;;;;;19.20;7.70;;;;;;;-0.12;74.08;99043.52;4103419;85;21037;-87
2022/04/04 06:07:40;;;;;;;27.87;10.80;;;;;;;0.06;73.56;99056.03;4108938;85;21121;-87
2022/04/04 06:13:42;;;;;;;20.92;10.23;;;;;;;0.46;72.91;99048.85;4098974;85;21061;-87
2022/04/04 06:19:44;;;;;;;16.55;8.20;;;;;;;0.43;72.38;99053.51;4089886;85;21465;-87
2022/04/04 06:25:49;;;;;;;14.80;8.08;;;;;;;0.76;72.21;99046.73;4101519;85;22087;-87
2022/04/04 06:31:48;;;;;;;15.08;8.00;;;;;;;0.66;71.12;99037.59;4101577;85;21057;-86
2022/04/04 06:37:55;;;;;;;13.62;7.28;;;;;;;0.61;70.99;99037.71;4122908;85;21546;-86
2022/04/04 06:44:05;;;;;;;18.62;8.00;;;;;;;0.74;70.45;99051.62;4114186;85;21027;-87
2022/04/04 06:50:07;;;;;;;17.75;8.53;;;;;;;0.69;70.79;99049.86;4096821;85;21069;-87
2022/04/04 06:56:09;;;;;;;17.82;8.13;;;;;;;0.69;70.79;99049.86;4106492;85;21589;-86
2022/04/04 07:02:10;;;;;;;18.62;8.85;;;;;;;0.72;69.08;99041.16;4130390;85;21574;-88
2022/04/04 07:08:12;;;;;;;19.45;9.50;;;;;;;0.79;70.02;99042.07;4112133;84;21066;-87
2022/04/04 07:14:13;;;;;;;20.48;9.68;;;;;;;1.35;69.60;99042.93;4099919;85;21074;-87
2022/04/04 07:20:19;;;;;;;18.65;9.50;;;;;;;1.69;66.50;99039.52;4107003;85;21551;-86
2022/04/04 07:26:22;;;;;;;18.40;8.90;;;;;;;2.09;68.56;99034.76;4102651;85;21045;-86
2022/04/04 07:32:23;;;;;;;18.60;8.80;;;;;;;2.54;67.63;99037.33;4106661;84;21090;-87
2022/04/04 07:38:25;;;;;;;15.28;8.10;;;;;;;2.95;68.78;99031.58;4102793;83;22009;-86
2022/04/04 07:44:28;;;;;;;22.37;7.55;;;;;;;3.17;67.26;99024.56;4092376;85;21090;-86
2022/04/04 07:50:30;;;;;;;15.00;8.73;;;;;;;3.25;66.64;99016.17;4097474;85;21377;-86
2022/04/04 07:56:32;;;;;;;20.08;8.58;;;;;;;3.55;66.20;99013.69;4094342;85;21070;-85
2022/04/04 08:02:35;;;;;;;14.87;8.40;;;;;;;3.88;63.00;99009.16;4096262;83;21030;-86
2022/04/04 08:08:36;;;;;;;11.97;8.13;;;;;;;4.10;63.31;99008.02;4022731;86;21014;-86
2022/04/04 08:14:39;;;;;;;14.90;9.83;;;;;;;4.27;64.14;98993.77;4057428;86;21043;-88
2022/04/04 08:20:40;;;;;;;14.28;8.88;;;;;;;4.37;63.22;98993.33;4051176;86;21126;-87
2022/04/04 08:26:42;;;;;;;17.70;9.25;;;;;;;4.79;62.90;98989.36;4034524;86;21035;-86
2022/04/04 08:32:44;;;;;;;19.35;9.00;;;;;;;5.06;63.77;98991.22;4038126;86;21092;-86
2022/04/04 08:38:46;;;;;;;19.37;9.48;;;;;;;5.40;63.13;98988.84;3991873;87;21095;-87
2022/04/04 08:44:51;;;;;;;16.30;8.95;;;;;;;5.59;63.58;98987.66;3999821;88;21577;-87
2022/04/04 08:50:53;;;;;;;24.63;8.83;;;;;;;5.60;62.60;98981.67;3991366;88;21199;-87
2022/04/04 08:56:54;;;;;;;25.75;8.60;;;;;;;5.45;59.27;98975.02;4040899;86;21523;-87
2022/04/04 09:03:04;;;;;;;11.63;8.23;;;;;;;5.50;59.50;98968.55;4042185;86;21571;-88
2022/04/04 09:09:07;;;;;;;18.27;7.70;;;;;;;5.83;61.77;98959.69;3997030;86;21064;-89
2022/04/04 09:15:08;;;;;;;14.05;7.37;;;;;;;6.22;59.71;98965.09;4044406;86;21114;-88
2022/04/04 09:21:14;;;;;;;25.95;9.33;;;;;;;6.39;59.47;98959.34;4042348;86;21622;-89
2022/04/04 09:27:32;;;;;;;12.37;8.25;;;;;;;6.01;56.54;98955.56;4048123;86;21088;-89
2022/04/04 09:33:40;;;;;;;11.88;7.97;;;;;;;5.83;59.52;98944.74;3950224;87;21044;-89
2022/04/04 09:39:42;;;;;;;13.85;7.67;;;;;;;6.47;59.11;98936.44;3955710;87;21102;-89
2022/04/04 09:45:46;;;;;;;10.05;6.58;;;;;;;6.85;58.56;98926.53;3944431;87;21086;-88
2022/04/04 09:51:54;;;;;;;20.02;7.55;;;;;;;6.48;56.78;98923.84;3949880;87;21529;-89
2022/04/04 09:58:00;;;;;;;14.58;8.03;;;;;;;6.09;56.54;98907.84;3976990;88;21030;-89
2022/04/04 10:04:02;;;;;;;12.93;6.72;;;;;;;6.68;56.45;98894.80;3931461;88;21516;-90
2022/04/04 10:10:07;;;;;;;12.25;6.75;;;;;;;6.40;58.05;98884.02;3960318;88;21013;-90
2022/04/04 10:16:11;;;;;;;12.18;7.53;;;;;;;6.02;57.31;98883.77;3949022;88;21971;-90
2022/04/04 10:22:18;;;;;;;10.95;6.92;;;;;;;6.36;56.73;98866.24;3950085;88;21044;-90
2022/04/04 10:28:28;;;;;;;26.62;8.05;;;;;;;7.26;55.26;98850.29;4045034;86;21982;-89
2022/04/04 10:41:02;;;;;;;12.82;7.45;;;;;;;8.82;51.89;98826.35;3969868;86;20960;-91
2022/04/04 10:47:44;;;;;;;;;;;;;;;;;;;;;
2022/04/04 10:54:10;;;;;;;10.95;7.00;;;;;;;10.14;54.06;98817.52;3896104;87;21026;-91
2022/04/04 11:00:23;;;;;;;8.90;5.75;;;;;;;10.30;51.78;98812.60;4051732;86;21010;-89
2022/04/04 11:13:08;;;;;;;10.40;6.85;;;;;;;10.54;48.25;98786.61;4055509;88;21066;-91
2022/04/04 11:19:17;;;;;;;;;;;;;;;10.42;45.73;98784.95;4048243;86;20995;-91
2022/04/04 11:25:21;;;;;;;8.60;6.47;;;;;;;10.65;49.43;98781.98;4037500;86;20122;-88
2022/04/04 11:31:26;;;;;;;10.03;6.12;;;;;;;11.28;49.83;98763.77;3977867;87;20996;-89
2022/04/04 11:37:32;;;;;;;9.63;6.53;;;;;;;11.44;45.15;98762.86;4042031;86;21854;-89
2022/04/04 11:43:36;;;;;;;10.65;5.80;;;;;;;10.87;43.43;98753.00;4036769;86;21035;-89
2022/04/04 11:49:44;;;;;;;9.60;6.53;;;;;;;10.98;46.97;98737.98;4049721;86;21004;-89
2022/04/04 11:55:51;;;;;;;6.70;5.95;;;;;;;10.87;45.41;98737.14;4001892;87;21948;-88
2022/04/04 12:02:11;;;;;;;7.05;5.60;;;;;;;10.62;45.26;98721.95;4059609;86;20988;-89
2022/04/04 12:14:35;;;;;;;7.90;5.97;;;;;;;9.89;44.99;98711.75;3964673;86;21104;-90
2022/04/04 12:20:58;;;;;;;10.98;5.62;;;;;;;9.81;45.83;98701.34;4052924;86;21007;-90
2022/04/04 12:27:14;;;;;;;12.07;5.83;;;;;;;9.41;45.74;98688.44;4021333;87;21007;-89
2022/04/04 12:33:21;;;;;;;9.33;5.90;;;;;;;9.39;45.60;98670.86;4044086;87;21047;-88
2022/04/04 12:39:24;;;;;;;15.32;6.42;;;;;;;8.99;45.72;98677.63;4041994;87;20971;-88
2022/04/04 12:45:36;;;;;;;11.78;6.62;;;;;;;8.67;46.41;98666.87;4045696;86;21530;-89
2022/04/04 12:52:05;;;;;;;8.50;6.58;;;;;;;8.43;46.55;98644.92;4025051;87;21002;-87
2022/04/04 12:58:43;;;;;;;7.72;5.78;;;;;;;8.67;46.84;98636.28;3795344;91;21061;-86
2022/04/04 13:04:43;;;;;;;11.68;5.78;;;;;;;8.73;46.88;98629.34;3766931;91;21103;-89
2022/04/04 13:11:17;;;;;;;5.67;4.78;;;;;;;9.06;44.23;98626.62;3840780;90;21020;-91
2022/04/04 13:17:57;;;;;;;8.23;5.65;;;;;;;8.96;46.14;98608.16;3632654;90;20999;-88
2022/04/04 13:37:17;;;;;;;6.67;4.95;;;;;;;8.60;46.63;98570.70;3831652;87;21031;-87
2022/04/04 13:43:22;;;;;;;7.30;4.60;;;;;;;8.52;45.94;98566.91;4102976;83;20974;-88
2022/04/04 13:49:23;;;;;;;5.95;4.67;;;;;;;8.39;44.86;98554.09;4013705;85;21044;-87
2022/04/04 13:55:28;;;;;;;11.95;5.08;;;;;;;8.12;45.10;98552.52;4115205;85;20982;-88
2022/04/04 14:01:30;;;;;;;6.30;4.17;;;;;;;7.94;45.10;98533.19;4084471;85;21059;-87
2022/04/04 14:07:31;;;;;;;9.70;4.78;;;;;;;7.90;45.66;98522.03;4110216;85;21633;-87
2022/04/04 14:13:40;;;;;;;6.83;3.90;;;;;;;7.75;44.06;98512.10;4093470;85;21054;-86
2022/04/04 14:19:42;;;;;;;7.50;4.80;;;;;;;7.89;45.21;98506.84;4104189;85;21015;-85
2022/04/04 14:25:43;;;;;;;6.35;4.40;;;;;;;8.02;44.58;98479.55;4032221;86;20999;-86
2022/04/04 14:31:45;;;;;;;8.25;4.75;;;;;;;7.86;45.03;98472.92;4062302;86;20983;-86
2022/04/04 14:37:48;;;;;;;8.65;5.00;;;;;;;7.47;44.25;98463.42;4096241;85;20983;-87
2022/04/04 14:43:50;;;;;;;6.65;4.72;;;;;;;7.33;43.79;98455.05;4098324;85;21027;-85
2022/04/04 14:49:51;;;;;;;8.23;4.80;;;;;;;7.58;44.33;98445.30;4101663;85;20951;-87
2022/04/04 14:55:55;;;;;;;7.40;5.05;;;;;;;7.15;43.21;98432.79;4098536;85;21011;-85
2022/04/04 15:02:03;;;;;;;9.38;5.55;;;;;;;7.10;43.36;98422.20;4000506;85;21046;-85
2022/04/04 15:08:04;;;;;;;6.30;4.78;;;;;;;7.09;43.99;98426.09;4057904;86;21022;-86
2022/04/04 15:14:07;;;;;;;6.92;4.80;;;;;;;6.80;42.88;98400.36;4059676;86;21047;-87
2022/04/04 15:20:10;;;;;;;10.18;5.70;;;;;;;6.53;44.46;98386.48;4086010;85;20991;-86
2022/04/04 15:26:11;;;;;;;7.90;6.03;;;;;;;6.37;44.06;98373.01;3977167;86;21014;-88
2022/04/04 15:32:13;;;;;;;8.45;5.83;;;;;;;6.40;44.44;98352.48;3955931;88;21973;-85
2022/04/04 15:38:15;;;;;;;11.90;6.60;;;;;;;6.53;43.17;98343.58;3971699;88;21504;-86
2022/04/04 15:44:16;;;;;;;8.53;4.87;;;;;;;6.46;43.45;98330.64;3951708;87;21033;-86
2022/04/04 15:50:17;;;;;;;8.68;5.35;;;;;;;6.40;44.09;98317.91;3977574;88;21047;-86
2022/04/04 15:56:20;;;;;;;9.35;6.12;;;;;;;6.29;44.22;98307.46;3974945;88;21382;-86
2022/04/04 16:02:21;;;;;;;9.28;5.25;;;;;;;6.24;44.16;98305.05;3982703;88;21549;-86
2022/04/04 16:14:54;;;;;;;9.23;6.42;;;;;;;6.00;45.13;98276.86;4518524;76;28171;-86
2022/04/04 16:20:56;;;;;;;12.47;6.22;;;;;;;6.14;46.22;98270.30;4502778;77;21056;-87
2022/04/04 16:26:57;;;;;;;11.80;7.12;;;;;;;5.90;46.43;98263.09;4496440;77;20959;-88
2022/04/04 16:33:00;;;;;;;12.55;7.05;;;;;;;5.68;46.34;98242.89;4492932;77;21066;-88
2022/04/04 16:39:06;;;;;;;11.85;5.90;;;;;;;5.51;46.06;98235.19;4343558;80;21043;-87
2022/04/04 16:45:09;;;;;;;11.28;6.53;;;;;;;5.26;46.63;98216.87;4359845;80;21087;-88
2022/04/04 16:51:11;;;;;;;12.47;7.67;;;;;;;5.11;46.83;98207.67;4352467;80;21058;-88
2022/04/04 16:57:13;;;;;;;12.33;6.85;;;;;;;4.95;47.12;98196.69;4334582;80;21113;-87
2022/04/04 17:03:14;;;;;;;10.13;6.28;;;;;;;4.73;47.58;98176.46;4365875;80;21007;-86
2022/04/04 17:09:15;;;;;;;17.25;7.70;;;;;;;4.59;47.72;98170.19;4355873;80;21077;-86
2022/04/04 17:15:17;;;;;;;15.30;8.67;;;;;;;4.46;47.96;98158.48;4338425;80;21516;-88
2022/04/04 17:21:21;;;;;;;16.50;8.35;;;;;;;4.29;48.46;98142.03;4351419;80;21046;-87
2022/04/04 17:27:23;;;;;;;13.95;8.30;;;;;;;4.22;49.24;98144.61;4348462;80;21035;-87
2022/04/04 17:33:25;;;;;;;20.55;8.80;;;;;;;4.07;49.56;98136.52;4226065;80;9999724;-88
2022/04/04 17:39:26;;;;;;;20.32;10.23;;;;;;;3.92;49.87;98127.27;4352887;80;21043;-88
